createdAt,value
2022-08-26T00:02:04.595Z,26.55
2022-08-26T00:04:34.115Z,26.48
2022-08-26T00:07:03.052Z,26.52
2022-08-26T00:09:33.848Z,26.59
2022-08-26T00:12:07.621Z,26.71
2022-08-26T00:14:36.862Z,26.52
2022-08-26T00:17:05.117Z,26.56
2022-08-26T00:19:37.781Z,26.53
2022-08-26T00:22:05.876Z,26.43
2022-08-26T00:24:33.716Z,26.79
2022-08-26T00:27:01.417Z,26.55
2022-08-26T00:29:31.929Z,26.74
2022-08-26T00:32:06.542Z,26.61
2022-08-26T00:34:37.696Z,26.44
2022-08-26T00:37:09.047Z,26.53
2022-08-26T00:39:40.133Z,26.38
2022-08-26T00:42:08.290Z,26.24
2022-08-26T00:44:36.323Z,26.45
2022-08-26T00:47:07.763Z,26.41
2022-08-26T00:49:40.954Z,26.52
2022-08-26T00:52:13.191Z,26.57
2022-08-26T00:54:48.722Z,26.63
2022-08-26T00:57:18.805Z,26.60
2022-08-26T00:59:48.558Z,26.63
2022-08-26T01:02:20.765Z,26.67
2022-08-26T01:04:55.539Z,26.74
2022-08-26T01:07:25.497Z,26.63
2022-08-26T01:09:53.326Z,26.71
2022-08-26T01:12:22.136Z,26.81
2022-08-26T01:14:50.430Z,26.82
2022-08-26T01:17:18.687Z,26.79
2022-08-26T01:19:48.661Z,26.74
2022-08-26T01:22:21.233Z,26.77
2022-08-26T01:24:56.133Z,26.76
2022-08-26T01:27:24.258Z,26.86
2022-08-26T01:29:52.565Z,26.88
2022-08-26T01:32:23.236Z,26.94
2022-08-26T01:34:51.260Z,26.95
2022-08-26T01:37:21.908Z,26.92
2022-08-26T01:39:54.109Z,26.88
2022-08-26T01:42:25.029Z,26.92
2022-08-26T01:44:55.135Z,26.84
2022-08-26T01:47:25.636Z,26.91
2022-08-26T01:49:55.640Z,26.95
2022-08-26T01:52:27.642Z,26.87
2022-08-26T01:54:57.057Z,26.89
2022-08-26T01:57:26.855Z,26.94
2022-08-26T01:59:56.896Z,26.88
2022-08-26T02:02:24.955Z,26.76
2022-08-26T02:04:55.645Z,26.77
2022-08-26T02:07:24.400Z,26.79
2022-08-26T02:09:56.783Z,26.72
2022-08-26T02:12:26.751Z,26.74
2022-08-26T02:14:56.756Z,26.78
2022-08-26T02:17:29.592Z,26.75
2022-08-26T02:19:58.892Z,26.80
2022-08-26T02:22:26.879Z,26.80
2022-08-26T02:24:59.237Z,26.80
2022-08-26T02:27:30.504Z,26.74
2022-08-26T02:30:06.235Z,26.79
2022-08-26T02:32:34.174Z,26.77
2022-08-26T02:35:05.270Z,26.78
2022-08-26T02:37:33.990Z,26.78
2022-08-26T02:40:04.071Z,26.77
2022-08-26T02:42:33.461Z,26.79
2022-08-26T02:45:02.999Z,26.76
2022-08-26T02:47:32.375Z,26.71
2022-08-26T02:50:00.934Z,26.69
2022-08-26T02:52:28.972Z,26.74
2022-08-26T02:54:56.699Z,26.70
2022-08-26T02:57:24.685Z,26.73
2022-08-26T02:59:53.724Z,26.64
2022-08-26T03:02:21.608Z,26.70
2022-08-26T03:04:58.164Z,26.71
2022-08-26T03:07:30.023Z,26.70
2022-08-26T03:09:58.711Z,26.65
2022-08-26T03:12:26.691Z,26.57
2022-08-26T03:14:56.171Z,26.53
2022-08-26T03:17:23.858Z,26.53
2022-08-26T03:19:57.260Z,26.56
2022-08-26T03:22:26.094Z,26.59
2022-08-26T03:24:55.110Z,26.49
2022-08-26T03:27:22.886Z,26.51
2022-08-26T03:30:08.168Z,26.53
2022-08-26T03:32:41.546Z,26.46
2022-08-26T03:35:10.091Z,26.38
2022-08-26T03:37:38.120Z,26.18
2022-08-26T03:40:08.837Z,26.44
2022-08-26T03:42:36.828Z,26.39
2022-08-26T03:45:05.372Z,26.39
2022-08-26T03:47:33.641Z,26.42
2022-08-26T03:50:03.404Z,26.39
2022-08-26T03:52:31.888Z,26.37
2022-08-26T03:54:59.603Z,26.31
2022-08-26T03:57:29.617Z,26.30
2022-08-26T03:59:58.972Z,26.31
2022-08-26T04:02:27.081Z,26.26
2022-08-26T04:04:54.824Z,26.27
2022-08-26T04:07:25.871Z,26.33
2022-08-26T04:09:55.964Z,26.19
2022-08-26T04:12:24.474Z,26.16
2022-08-26T04:14:52.428Z,26.22
2022-08-26T04:17:24.921Z,26.22
2022-08-26T04:19:53.790Z,26.21
2022-08-26T04:22:25.010Z,26.14
2022-08-26T04:24:54.569Z,26.18
2022-08-26T04:27:24.079Z,26.04
2022-08-26T04:29:55.310Z,26.08
2022-08-26T04:32:23.371Z,26.15
2022-08-26T04:34:51.231Z,26.13
2022-08-26T04:37:19.110Z,26.13
2022-08-26T04:39:51.891Z,26.06
2022-08-26T04:42:25.370Z,26.12
2022-08-26T04:44:53.921Z,26.10
2022-08-26T04:47:21.632Z,26.05
2022-08-26T04:49:49.377Z,25.90
2022-08-26T04:52:18.112Z,26.06
2022-08-26T04:54:45.901Z,26.00
2022-08-26T04:57:13.676Z,25.99
2022-08-26T04:59:44.708Z,26.04
2022-08-26T05:02:12.601Z,25.99
2022-08-26T05:04:43.331Z,25.95
2022-08-26T05:07:11.231Z,25.87
2022-08-26T05:09:40.922Z,25.94
2022-08-26T05:12:09.537Z,25.80
2022-08-26T05:14:37.349Z,25.53
2022-08-26T05:17:06.471Z,25.56
2022-08-26T05:19:34.533Z,25.57
2022-08-26T05:22:05.413Z,25.58
2022-08-26T05:24:33.086Z,25.36
2022-08-26T05:27:03.052Z,25.66
2022-08-26T05:29:35.231Z,25.43
2022-08-26T05:32:03.973Z,25.31
2022-08-26T05:34:34.074Z,25.21
2022-08-26T05:37:02.729Z,25.55
2022-08-26T05:39:32.752Z,25.48
2022-08-26T05:42:00.444Z,25.60
2022-08-26T05:44:29.897Z,25.69
2022-08-26T05:47:17.572Z,25.74
2022-08-26T05:49:51.380Z,25.72
2022-08-26T05:52:19.855Z,25.43
2022-08-26T05:54:47.860Z,25.16
2022-08-26T05:57:16.084Z,25.48
2022-08-26T05:59:46.330Z,25.32
2022-08-26T06:02:14.041Z,25.24
2022-08-26T06:04:42.043Z,24.93
2022-08-26T06:07:12.116Z,25.21
2022-08-26T06:09:41.404Z,25.23
2022-08-26T06:12:09.621Z,24.96
2022-08-26T06:14:37.487Z,24.96
2022-08-26T06:17:06.060Z,24.98
2022-08-26T06:19:37.217Z,25.10
2022-08-26T06:22:29.279Z,25.41
2022-08-26T06:25:15.789Z,25.38
2022-08-26T06:27:43.496Z,25.29
2022-08-26T06:30:12.573Z,25.30
2022-08-26T06:32:40.287Z,25.31
2022-08-26T06:35:12.192Z,25.34
2022-08-26T06:37:40.396Z,25.53
2022-08-26T06:40:11.725Z,25.37
2022-08-26T06:42:39.659Z,25.42
2022-08-26T06:45:08.452Z,25.65
2022-08-26T06:47:36.215Z,25.51
2022-08-26T06:50:04.692Z,25.38
2022-08-26T06:52:32.405Z,25.46
2022-08-26T06:55:00.123Z,25.48
2022-08-26T06:57:32.782Z,25.52
2022-08-26T07:00:07.176Z,25.61
2022-08-26T07:02:35.136Z,25.65
2022-08-26T07:05:05.505Z,25.75
2022-08-26T07:07:33.228Z,25.51
2022-08-26T07:10:00.939Z,25.84
2022-08-26T07:12:31.893Z,25.83
2022-08-26T07:14:59.621Z,25.98
2022-08-26T07:17:29.114Z,26.16
2022-08-26T07:19:57.432Z,26.11
2022-08-26T07:22:25.226Z,26.16
2022-08-26T07:24:52.905Z,26.16
2022-08-26T07:27:20.582Z,26.32
2022-08-26T07:29:50.556Z,26.26
2022-08-26T07:32:22.934Z,26.20
2022-08-26T07:34:50.829Z,26.35
2022-08-26T07:37:18.641Z,26.59
2022-08-26T07:39:48.155Z,26.71
2022-08-26T07:42:18.516Z,26.48
2022-08-26T07:44:46.327Z,26.64
2022-08-26T07:47:24.880Z,26.78
2022-08-26T07:49:54.764Z,26.89
2022-08-26T07:52:26.386Z,26.80
2022-08-26T07:54:54.924Z,26.87
2022-08-26T07:57:24.128Z,27.15
2022-08-26T07:59:52.409Z,27.10
2022-08-26T08:02:25.284Z,27.12
2022-08-26T08:04:54.398Z,27.12
2022-08-26T08:07:38.764Z,27.28
2022-08-26T08:10:11.585Z,27.44
2022-08-26T08:12:39.822Z,27.62
2022-08-26T08:15:08.899Z,27.82
2022-08-26T08:17:38.994Z,27.75
2022-08-26T08:20:09.125Z,27.93
2022-08-26T08:22:36.901Z,27.93
2022-08-26T08:25:06.354Z,27.87
2022-08-26T08:27:36.565Z,28.00
2022-08-26T08:30:05.439Z,28.04
2022-08-26T08:32:33.167Z,28.24
2022-08-26T08:35:10.742Z,28.12
2022-08-26T08:37:38.882Z,28.29
2022-08-26T08:40:08.542Z,28.38
2022-08-26T08:42:46.847Z,28.42
2022-08-26T08:45:18.396Z,28.45
2022-08-26T08:47:50.354Z,28.55
2022-08-26T08:50:24.185Z,28.48
2022-08-26T08:52:57.925Z,28.66
2022-08-26T08:55:46.176Z,28.52
2022-08-26T08:58:19.713Z,28.65
2022-08-26T09:00:52.901Z,28.71
2022-08-26T09:03:30.896Z,29.08
2022-08-26T09:06:01.374Z,29.06
2022-08-26T09:08:35.119Z,29.03
2022-08-26T09:11:04.725Z,28.93
2022-08-26T09:13:35.186Z,29.15
2022-08-26T09:16:08.202Z,29.21
2022-08-26T09:18:55.052Z,29.22
2022-08-26T09:21:26.008Z,29.32
2022-08-26T09:23:56.625Z,29.22
2022-08-26T09:26:29.185Z,29.28
2022-08-26T09:28:58.723Z,29.70
2022-08-26T09:31:28.656Z,29.60
2022-08-26T09:34:17.528Z,29.46
2022-08-26T09:36:48.487Z,29.74
2022-08-26T09:39:29.054Z,29.60
2022-08-26T09:42:09.433Z,29.69
2022-08-26T09:44:53.425Z,29.82
2022-08-26T09:47:23.379Z,29.80
2022-08-26T09:49:58.737Z,30.09
2022-08-26T09:52:27.915Z,30.12
2022-08-26T09:55:04.417Z,30.32
2022-08-26T09:57:33.783Z,30.21
2022-08-26T10:02:57.791Z,30.71
2022-08-26T10:05:32.269Z,30.51
2022-08-26T10:08:16.770Z,30.83
2022-08-26T10:10:46.100Z,30.86
2022-08-26T10:13:19.945Z,30.35
2022-08-26T10:15:58.135Z,30.08
2022-08-26T10:18:34.188Z,30.11
2022-08-26T10:21:06.329Z,30.25
2022-08-26T10:26:15.479Z,29.59
2022-08-26T10:28:47.740Z,29.78
2022-08-26T10:31:27.827Z,29.88
2022-08-26T10:34:00.081Z,29.82
2022-08-26T10:37:13.696Z,29.84
2022-08-26T10:39:46.384Z,29.79
2022-08-26T10:42:22.557Z,30.22
2022-08-26T10:44:53.999Z,30.38
2022-08-26T10:47:29.525Z,30.40
2022-08-26T10:50:03.003Z,30.26
2022-08-26T10:52:39.245Z,30.44
2022-08-26T10:55:13.596Z,30.43
2022-08-26T10:57:49.749Z,30.35
2022-08-26T11:00:38.220Z,30.17
2022-08-26T11:03:21.620Z,30.89
2022-08-26T11:06:21.421Z,30.86
2022-08-26T11:08:49.692Z,31.04
2022-08-26T11:11:45.249Z,30.63
2022-08-26T11:14:46.099Z,30.64
2022-08-26T11:17:55.241Z,30.98
2022-08-26T11:20:33.925Z,31.28
2022-08-26T11:23:35.381Z,31.08
2022-08-26T11:26:16.406Z,31.09
2022-08-26T11:29:04.320Z,31.53
2022-08-26T11:31:56.849Z,31.17
2022-08-26T11:34:53.970Z,31.43
2022-08-26T11:37:23.557Z,31.42
2022-08-26T11:39:57.250Z,31.45
2022-08-26T11:42:34.186Z,31.63
2022-08-26T11:45:05.413Z,31.40
2022-08-26T11:47:33.762Z,31.23
2022-08-26T11:50:13.048Z,31.54
2022-08-26T11:52:40.877Z,31.52
2022-08-26T11:55:11.504Z,31.37
2022-08-26T11:57:43.525Z,31.54
2022-08-26T12:00:22.223Z,31.57
2022-08-26T12:02:51.263Z,31.34
2022-08-26T12:05:24.795Z,31.33
2022-08-26T12:07:55.096Z,31.46
2022-08-26T12:10:29.711Z,31.67
2022-08-26T12:12:59.715Z,31.64
2022-08-26T12:15:30.053Z,31.39
2022-08-26T12:18:00.236Z,31.40
2022-08-26T12:20:45.809Z,31.74
2022-08-26T12:23:24.733Z,31.85
2022-08-26T12:25:53.580Z,31.13
2022-08-26T12:28:21.460Z,31.34
2022-08-26T12:31:02.976Z,31.24
2022-08-26T12:33:31.287Z,31.24
2022-08-26T12:36:03.964Z,31.26
2022-08-26T12:38:33.838Z,31.38
2022-08-26T12:41:03.475Z,31.64
2022-08-26T12:43:42.183Z,31.51
2022-08-26T12:46:12.642Z,31.52
2022-08-26T12:48:44.105Z,31.44
2022-08-26T12:51:27.688Z,31.71
2022-08-26T12:53:55.838Z,31.63
2022-08-26T12:56:28.505Z,31.59
2022-08-26T12:59:10.312Z,31.45
2022-08-26T13:01:44.112Z,31.54
2022-08-26T13:04:38.016Z,31.12
2022-08-26T13:07:21.183Z,31.51
2022-08-26T13:09:50.147Z,31.39
2022-08-26T13:12:25.732Z,31.23
2022-08-26T13:14:53.548Z,31.23
2022-08-26T13:17:22.632Z,31.22
2022-08-26T13:19:50.376Z,31.01
2022-08-26T13:22:20.243Z,31.18
2022-08-26T13:24:48.011Z,31.17
2022-08-26T13:27:17.843Z,31.16
2022-08-26T13:29:45.627Z,31.03
2022-08-26T13:32:13.548Z,30.97
2022-08-26T13:34:42.989Z,30.90
2022-08-26T13:37:10.747Z,30.83
2022-08-26T13:39:39.370Z,30.81
2022-08-26T13:42:07.416Z,30.96
2022-08-26T13:44:35.879Z,31.08
2022-08-26T13:47:03.670Z,30.83
2022-08-26T13:49:31.474Z,31.01
2022-08-26T13:52:01.955Z,30.98
2022-08-26T13:54:29.735Z,30.96
2022-08-26T13:56:57.483Z,31.15
2022-08-26T13:59:25.246Z,30.97
2022-08-26T14:01:53.059Z,31.16
2022-08-26T14:04:22.469Z,31.07
2022-08-26T14:06:55.147Z,31.01
2022-08-26T14:09:24.282Z,31.10
2022-08-26T14:11:54.479Z,30.99
2022-08-26T14:14:23.091Z,30.92
2022-08-26T14:16:58.648Z,31.02
2022-08-26T14:19:27.903Z,30.90
2022-08-26T14:21:56.048Z,30.99
2022-08-26T14:24:25.114Z,30.87
2022-08-26T14:26:52.956Z,30.71
2022-08-26T14:29:20.691Z,30.79
2022-08-26T14:31:48.494Z,30.65
2022-08-26T14:34:16.572Z,30.85
2022-08-26T14:36:44.321Z,30.91
2022-08-26T14:39:14.588Z,30.86
2022-08-26T14:41:45.836Z,30.79
2022-08-26T14:44:23.201Z,30.81
2022-08-26T14:46:52.744Z,30.88
2022-08-26T14:49:22.060Z,30.84
2022-08-26T14:51:49.962Z,30.67
2022-08-26T14:54:18.779Z,30.29
2022-08-26T14:56:50.165Z,29.87
2022-08-26T14:59:20.215Z,29.72
2022-08-26T15:01:48.130Z,29.45
2022-08-26T15:04:16.416Z,29.26
2022-08-26T15:06:44.231Z,28.76
2022-08-26T15:09:12.279Z,28.30
2022-08-26T15:11:41.197Z,28.07
2022-08-26T15:14:18.869Z,27.94
2022-08-26T15:16:48.029Z,28.09
2022-08-26T15:19:15.912Z,28.27
2022-08-26T15:21:45.298Z,28.36
2022-08-26T15:24:13.761Z,27.89
2022-08-26T15:26:41.783Z,27.57
2022-08-26T15:29:10.883Z,27.74
2022-08-26T15:31:38.679Z,27.94
2022-08-26T15:34:10.990Z,28.07
2022-08-26T15:36:42.664Z,27.66
2022-08-26T15:39:10.470Z,28.06
2022-08-26T15:41:38.757Z,28.11
2022-08-26T15:44:07.164Z,27.75
2022-08-26T15:46:37.528Z,27.72
2022-08-26T15:49:07.202Z,27.78
2022-08-26T15:51:45.967Z,27.96
2022-08-26T15:54:14.507Z,28.00
2022-08-26T15:56:43.429Z,28.55
2022-08-26T15:59:11.732Z,28.56
2022-08-26T16:01:41.249Z,28.34
2022-08-26T16:04:09.139Z,28.14
2022-08-26T16:06:38.874Z,27.90
2022-08-26T16:09:08.123Z,28.12
2022-08-26T16:11:37.295Z,27.30
2022-08-26T16:14:05.859Z,26.95
2022-08-26T16:16:33.778Z,26.82
2022-08-26T16:19:07.397Z,26.67
2022-08-26T16:21:36.152Z,26.13
2022-08-26T16:24:04.709Z,26.08
2022-08-26T16:26:36.155Z,26.52
2022-08-26T16:29:08.043Z,26.61
2022-08-26T16:31:37.174Z,26.53
2022-08-26T16:34:06.980Z,26.45
2022-08-26T16:36:35.482Z,26.14
2022-08-26T16:39:05.979Z,26.51
2022-08-26T16:41:35.047Z,25.99
2022-08-26T16:44:03.336Z,26.47
2022-08-26T16:46:31.168Z,26.43
2022-08-26T16:48:59.471Z,25.84
2022-08-26T16:51:29.654Z,26.23
2022-08-26T16:53:58.764Z,25.59
2022-08-26T16:56:33.935Z,25.64
2022-08-26T16:59:03.135Z,25.56
2022-08-26T17:01:31.087Z,25.99
2022-08-26T17:03:59.041Z,25.58
2022-08-26T17:06:28.188Z,26.17
2022-08-26T17:08:55.922Z,26.00
2022-08-26T17:11:23.731Z,26.00
2022-08-26T17:13:51.521Z,26.22
2022-08-26T17:16:22.234Z,26.10
2022-08-26T17:18:52.347Z,26.53
2022-08-26T17:21:20.192Z,26.58
2022-08-26T17:23:49.292Z,26.18
2022-08-26T17:26:16.988Z,26.40
2022-08-26T17:28:44.760Z,26.42
2022-08-26T17:31:13.747Z,26.48
2022-08-26T17:33:41.639Z,26.67
2022-08-26T17:36:10.423Z,26.35
2022-08-26T17:38:38.535Z,26.56
2022-08-26T17:41:09.832Z,26.33
2022-08-26T17:43:38.247Z,26.34
2022-08-26T17:46:08.149Z,26.90
2022-08-26T17:48:36.596Z,27.10
2022-08-26T17:51:08.237Z,27.03
2022-08-26T17:53:35.976Z,27.02
2022-08-26T17:56:08.909Z,27.20
2022-08-26T17:58:36.913Z,27.31
2022-08-26T18:01:06.126Z,27.16
2022-08-26T18:03:34.207Z,27.42
2022-08-26T18:06:02.077Z,27.02
2022-08-26T18:08:30.558Z,26.94
2022-08-26T18:10:58.956Z,26.79
2022-08-26T18:13:28.025Z,27.00
2022-08-26T18:15:55.794Z,26.88
2022-08-26T18:18:23.570Z,27.11
2022-08-26T18:20:51.993Z,26.94
2022-08-26T18:23:29.303Z,26.81
2022-08-26T18:25:59.357Z,26.97
2022-08-26T18:28:28.385Z,27.26
2022-08-26T18:30:57.041Z,27.10
2022-08-26T18:33:25.432Z,27.21
2022-08-26T18:35:53.567Z,26.83
2022-08-26T18:38:21.295Z,26.94
2022-08-26T18:40:50.208Z,27.17
2022-08-26T18:43:18.022Z,27.29
2022-08-26T18:45:47.498Z,27.30
2022-08-26T18:48:15.546Z,27.37
2022-08-26T18:50:47.316Z,27.32
2022-08-26T18:53:15.602Z,27.12
2022-08-26T18:55:43.311Z,26.89
2022-08-26T18:58:11.646Z,27.29
2022-08-26T19:00:39.551Z,27.34
2022-08-26T19:03:18.486Z,27.28
2022-08-26T19:05:46.892Z,27.31
2022-08-26T19:08:14.673Z,27.32
2022-08-26T19:10:42.761Z,27.14
2022-08-26T19:13:10.735Z,27.16
2022-08-26T19:15:39.832Z,27.24
2022-08-26T19:18:09.676Z,27.22
2022-08-26T19:20:43.488Z,27.22
2022-08-26T19:23:30.447Z,27.19
2022-08-26T19:25:59.986Z,27.12
2022-08-26T19:28:27.699Z,27.23
2022-08-26T19:30:55.517Z,27.24
2022-08-26T19:33:24.652Z,26.95
2022-08-26T19:35:52.655Z,27.07
2022-08-26T19:38:20.855Z,27.12
2022-08-26T19:40:48.603Z,27.14
2022-08-26T19:43:16.327Z,26.97
2022-08-26T19:45:44.647Z,26.95
2022-08-26T19:48:12.876Z,27.12
2022-08-26T19:50:42.476Z,27.10
2022-08-26T19:53:10.197Z,27.26
2022-08-26T19:55:38.564Z,27.16
2022-08-26T19:58:06.362Z,27.02
2022-08-26T20:00:35.606Z,26.97
2022-08-26T20:03:04.135Z,27.08
2022-08-26T20:05:31.937Z,27.21
2022-08-26T20:08:01.003Z,27.14
2022-08-26T20:10:28.888Z,26.87
2022-08-26T20:12:56.683Z,26.55
2022-08-26T20:15:24.828Z,26.91
2022-08-26T20:17:56.126Z,26.77
2022-08-26T20:20:42.035Z,27.03
2022-08-26T20:23:11.437Z,27.02
2022-08-26T20:25:39.307Z,27.03
2022-08-26T20:28:07.110Z,27.00
2022-08-26T20:30:34.899Z,27.06
2022-08-26T20:33:04.096Z,26.63
2022-08-26T20:35:31.850Z,26.63
2022-08-26T20:37:59.903Z,26.24
2022-08-26T20:40:29.387Z,26.45
2022-08-26T20:42:57.200Z,26.78
2022-08-26T20:45:25.952Z,26.30
2022-08-26T20:47:53.700Z,26.15
2022-08-26T20:50:21.504Z,26.15
2022-08-26T20:52:49.234Z,26.51
2022-08-26T20:55:17.132Z,26.53
2022-08-26T20:57:46.223Z,26.24
2022-08-26T21:00:16.424Z,26.38
2022-08-26T21:02:46.245Z,26.61
2022-08-26T21:05:14.099Z,26.59
2022-08-26T21:07:41.869Z,26.69
2022-08-26T21:10:11.065Z,26.69
2022-08-26T21:12:38.890Z,26.31
2022-08-26T21:15:09.177Z,26.62
2022-08-26T21:17:39.815Z,26.17
2022-08-26T21:20:08.645Z,26.46
2022-08-26T21:22:36.966Z,25.99
2022-08-26T21:25:05.191Z,26.25
2022-08-26T21:27:35.227Z,26.32
2022-08-26T21:30:05.774Z,26.27
2022-08-26T21:32:34.947Z,26.46
2022-08-26T21:35:04.787Z,25.63
2022-08-26T21:37:32.563Z,25.99
2022-08-26T21:40:03.158Z,26.16
2022-08-26T21:42:33.481Z,25.70
2022-08-26T21:45:03.080Z,26.18
2022-08-26T21:47:32.595Z,25.89
2022-08-26T21:50:03.513Z,25.91
2022-08-26T21:52:31.291Z,26.19
2022-08-26T21:55:00.339Z,26.23
2022-08-26T21:57:30.178Z,26.28
2022-08-26T21:59:58.232Z,26.14
2022-08-26T22:02:26.007Z,26.02
2022-08-26T22:04:53.916Z,26.30
2022-08-26T22:07:23.033Z,26.01
2022-08-26T22:09:50.834Z,26.35
2022-08-26T22:12:19.107Z,26.17
2022-08-26T22:14:47.001Z,26.04
2022-08-26T22:17:15.398Z,26.18
2022-08-26T22:19:46.083Z,25.92
2022-08-26T22:22:15.825Z,25.68
2022-08-26T22:24:44.991Z,25.67
2022-08-26T22:27:14.091Z,25.70
2022-08-26T22:29:41.874Z,25.84
2022-08-26T22:32:10.094Z,25.83
2022-08-26T22:34:37.969Z,26.06
2022-08-26T22:37:05.758Z,25.82
2022-08-26T22:39:33.624Z,25.61
2022-08-26T22:42:04.577Z,25.51
2022-08-26T22:44:32.943Z,25.80
2022-08-26T22:47:01.395Z,26.00
2022-08-26T22:49:29.664Z,25.87
2022-08-26T22:51:57.414Z,25.75
2022-08-26T22:54:25.958Z,25.35
2022-08-26T22:56:54.490Z,25.74
2022-08-26T22:59:23.629Z,25.61
2022-08-26T23:01:51.588Z,25.82
2022-08-26T23:04:20.038Z,25.45
2022-08-26T23:06:48.092Z,25.62
2022-08-26T23:09:17.849Z,25.06
2022-08-26T23:11:46.167Z,25.63
2022-08-26T23:14:14.039Z,25.01
2022-08-26T23:16:43.281Z,25.11
2022-08-26T23:19:12.627Z,24.80
2022-08-26T23:21:40.703Z,25.43
2022-08-26T23:24:09.607Z,24.60
2022-08-26T23:26:37.975Z,25.34
2022-08-26T23:29:07.259Z,25.46
2022-08-26T23:31:35.175Z,25.58
2022-08-26T23:34:23.535Z,24.84
2022-08-26T23:36:52.626Z,25.07
2022-08-26T23:39:21.686Z,25.04
2022-08-26T23:41:49.539Z,25.07
2022-08-26T23:44:17.296Z,24.65
2022-08-26T23:46:45.072Z,24.70
2022-08-26T23:49:14.193Z,24.59
2022-08-26T23:51:59.491Z,24.80
2022-08-26T23:54:27.303Z,24.71
2022-08-26T23:56:55.068Z,24.73
2022-08-26T23:59:22.811Z,24.65
